Terminal Aerodrome Forecast
Issued by NWS

Home | Current Version | Previous Version | Text Only | Print | Product List | Glossary Off
Versions: 1 2 3 4 5 6 7 8 9 10 11 12 13 14 15 16 17 18 19 20 21 22 23 24

000
FTUS43 KICT 180205 AAB
TAFHUT
TAF AMD
KHUT 180205Z 1802/1824 07007KT P6SM OVC004
      TEMPO 1802/1805 OVC008
     FM180500 10007KT 5SM BR OVC005
     FM180800 VRB03KT 3SM BR VCTS SCT003 OVC015CB
     FM181400 17007KT P6SM SCT020 OVC100=

USA.gov is the U.S. government's official web portal to all federal, state and local government web resources and services.